createdAt,value
2022-09-04T00:02:25.579Z,59.70
2022-09-04T00:05:06.729Z,59.85
2022-09-04T00:08:05.027Z,60.03
2022-09-04T00:10:56.545Z,59.86
2022-09-04T00:13:27.668Z,60.57
2022-09-04T00:16:06.504Z,60.61
2022-09-04T00:18:42.123Z,60.69
2022-09-04T00:21:14.591Z,60.70
2022-09-04T00:23:51.840Z,60.68
2022-09-04T00:26:50.361Z,60.52
2022-09-04T00:29:26.089Z,60.93
2022-09-04T00:32:02.110Z,60.89
2022-09-04T00:34:55.312Z,60.79
2022-09-04T00:37:27.050Z,61.20
2022-09-04T00:40:15.615Z,60.79
2022-09-04T00:42:51.509Z,61.62
2022-09-04T00:45:44.424Z,62.00
2022-09-04T00:48:37.479Z,61.60
2022-09-04T00:51:32.910Z,61.69
2022-09-04T00:54:17.686Z,62.26
2022-09-04T00:57:14.054Z,62.27
2022-09-04T00:59:59.160Z,62.55
2022-09-04T01:02:58.711Z,62.34
2022-09-04T01:05:45.540Z,63.07
2022-09-04T01:08:49.289Z,62.87
2022-09-04T01:11:47.005Z,63.41
2022-09-04T01:14:40.262Z,62.83
2022-09-04T01:17:24.289Z,63.38
2022-09-04T01:19:59.061Z,63.38
2022-09-04T01:22:41.459Z,63.55
2022-09-04T01:25:29.092Z,63.54
2022-09-04T01:28:16.893Z,63.91
2022-09-04T01:30:51.168Z,64.07
2022-09-04T01:33:44.646Z,63.87
2022-09-04T01:36:20.325Z,64.41
2022-09-04T01:38:58.954Z,64.79
2022-09-04T01:41:38.633Z,64.70
2022-09-04T01:44:08.309Z,64.89
2022-09-04T01:46:38.003Z,65.21
2022-09-04T01:49:10.543Z,65.48
2022-09-04T01:51:54.235Z,65.39
2022-09-04T01:54:52.371Z,65.59
2022-09-04T01:57:37.106Z,65.80
2022-09-04T02:00:17.179Z,65.67
2022-09-04T02:02:44.187Z,66.03
2022-09-04T02:05:38.040Z,65.93
2022-09-04T02:08:29.971Z,66.08
2022-09-04T02:11:20.020Z,65.94
2022-09-04T02:14:34.630Z,65.78
2022-09-04T02:17:01.131Z,66.27
2022-09-04T02:19:41.302Z,66.38
2022-09-04T02:22:14.714Z,66.47
2022-09-04T02:24:41.321Z,66.58
2022-09-04T02:27:23.317Z,66.64
2022-09-04T02:29:59.347Z,66.66
2022-09-04T02:32:32.854Z,66.72
2022-09-04T02:35:09.838Z,66.71
2022-09-04T02:37:56.355Z,67.02
2022-09-04T02:40:25.753Z,67.38
2022-09-04T02:43:19.451Z,67.04
2022-09-04T02:46:00.135Z,67.41
2022-09-04T02:49:09.686Z,67.05
2022-09-04T02:51:54.064Z,67.83
2022-09-04T02:54:41.574Z,68.11
2022-09-04T02:57:33.479Z,68.46
2022-09-04T03:00:39.463Z,68.13
2022-09-04T03:03:31.853Z,68.48
2022-09-04T03:06:33.149Z,68.70
2022-09-04T03:09:07.867Z,69.48
2022-09-04T03:11:44.545Z,69.50
2022-09-04T03:14:34.279Z,69.51
2022-09-04T03:17:10.524Z,70.30
2022-09-04T03:19:50.825Z,70.24
2022-09-04T03:22:48.939Z,69.97
2022-09-04T03:25:36.799Z,70.18
2022-09-04T03:28:03.861Z,70.45
2022-09-04T03:30:35.963Z,70.77
2022-09-04T03:33:14.861Z,70.96
2022-09-04T03:36:00.090Z,70.49
2022-09-04T03:39:04.362Z,70.72
2022-09-04T03:42:06.225Z,71.12
2022-09-04T03:44:56.712Z,71.10
2022-09-04T03:47:47.750Z,71.25
2022-09-04T03:50:35.643Z,71.44
2022-09-04T03:53:29.929Z,71.08
2022-09-04T03:56:02.461Z,71.48
2022-09-04T03:59:05.720Z,71.01
2022-09-04T04:01:43.893Z,71.61
2022-09-04T04:04:28.366Z,71.92
2022-09-04T04:07:11.897Z,71.55
2022-09-04T04:10:08.855Z,72.07
2022-09-04T04:12:49.969Z,72.01
2022-09-04T04:15:33.796Z,71.79
2022-09-04T04:18:13.988Z,72.13
2022-09-04T04:20:47.773Z,72.42
2022-09-04T04:23:56.907Z,71.87
2022-09-04T04:26:40.542Z,72.10
2022-09-04T04:29:19.398Z,72.06
2022-09-04T04:32:10.588Z,72.24
2022-09-04T04:34:47.614Z,72.32
2022-09-04T04:37:24.284Z,72.56
2022-09-04T04:40:38.491Z,72.21
2022-09-04T04:43:15.958Z,72.62
2022-09-04T04:46:25.776Z,72.22
2022-09-04T04:49:10.805Z,72.44
2022-09-04T04:52:16.785Z,72.16
2022-09-04T04:54:52.244Z,72.68
2022-09-04T04:57:36.791Z,72.83
2022-09-04T05:00:27.553Z,72.78
2022-09-04T05:03:19.622Z,72.98
2022-09-04T05:06:36.146Z,72.89
2022-09-04T05:09:14.801Z,73.67
2022-09-04T05:11:53.844Z,73.58
2022-09-04T05:14:38.824Z,73.88
2022-09-04T05:17:38.920Z,73.51
2022-09-04T05:20:21.893Z,73.52
2022-09-04T05:22:54.547Z,73.64
2022-09-04T05:25:24.712Z,73.83
2022-09-04T05:27:57.133Z,73.67
2022-09-04T05:30:38.150Z,73.50
2022-09-04T05:33:18.354Z,73.25
2022-09-04T05:36:00.129Z,73.25
2022-09-04T05:38:34.874Z,73.21
2022-09-04T05:41:15.189Z,73.12
2022-09-04T05:43:53.944Z,73.02
2022-09-04T05:46:45.299Z,72.49
2022-09-04T05:49:54.617Z,72.29
2022-09-04T05:52:33.079Z,70.94
2022-09-04T05:55:02.378Z,67.02
2022-09-04T05:57:37.344Z,63.69
2022-09-04T06:00:12.640Z,61.49
2022-09-04T06:03:16.520Z,60.78
2022-09-04T06:06:01.772Z,61.85
2022-09-04T06:09:02.204Z,62.64
2022-09-04T06:11:28.722Z,63.01
2022-09-04T06:14:07.510Z,64.16
2022-09-04T06:16:53.105Z,64.69
2022-09-04T06:19:37.750Z,65.33
2022-09-04T06:22:25.458Z,64.79
2022-09-04T06:25:27.278Z,63.90
2022-09-04T06:28:29.673Z,62.81
2022-09-04T06:30:59.059Z,62.15
2022-09-04T06:33:55.825Z,61.48
2022-09-04T06:37:04.421Z,58.59
2022-09-04T06:40:01.742Z,54.67
2022-09-04T06:43:09.025Z,50.77
2022-09-04T06:45:44.166Z,47.43
2022-09-04T06:48:26.351Z,44.57
2022-09-04T06:51:18.828Z,43.12
2022-09-04T06:54:34.712Z,42.39
2022-09-04T06:57:07.571Z,40.75
2022-09-04T06:59:57.529Z,39.79
2022-09-04T07:03:01.170Z,39.16
2022-09-04T07:05:52.444Z,38.69
2022-09-04T07:08:37.694Z,38.15
2022-09-04T07:11:14.751Z,37.07
2022-09-04T07:14:05.594Z,36.19
2022-09-04T07:16:41.928Z,36.69
2022-09-04T07:19:48.641Z,35.80
2022-09-04T07:22:21.073Z,35.11
2022-09-04T07:25:02.552Z,34.10
2022-09-04T07:27:51.155Z,34.56
2022-09-04T07:30:20.088Z,34.23
2022-09-04T07:32:54.390Z,33.91
2022-09-04T07:35:56.510Z,33.63
2022-09-04T07:38:26.012Z,32.73
2022-09-04T07:40:55.635Z,31.91
2022-09-04T07:43:26.716Z,32.11
2022-09-04T07:46:05.744Z,32.43
2022-09-04T07:48:44.570Z,32.54
2022-09-04T07:51:17.820Z,32.96
2022-09-04T07:54:05.775Z,34.07
2022-09-04T07:56:35.383Z,33.58
2022-09-04T07:59:25.232Z,33.47
2022-09-04T08:02:07.082Z,33.48
2022-09-04T08:05:11.370Z,33.21
2022-09-04T08:07:37.893Z,32.04
2022-09-04T08:10:04.374Z,31.26
2022-09-04T08:12:45.677Z,32.38
2022-09-04T08:15:21.674Z,33.31
2022-09-04T08:18:21.592Z,35.23
2022-09-04T08:21:11.483Z,35.28
2022-09-04T08:24:04.350Z,36.29
2022-09-04T08:26:52.725Z,36.46
2022-09-04T08:29:31.192Z,34.41
2022-09-04T08:32:03.581Z,33.27
2022-09-04T08:34:50.496Z,32.83
2022-09-04T08:37:28.321Z,33.97
2022-09-04T08:40:19.737Z,33.63
2022-09-04T08:43:10.587Z,33.81
2022-09-04T08:46:06.641Z,33.22
2022-09-04T08:48:42.489Z,33.52
2022-09-04T08:51:24.108Z,33.71
2022-09-04T08:54:20.270Z,33.76
2022-09-04T08:57:12.004Z,33.95
2022-09-04T08:59:54.286Z,34.81
2022-09-04T09:02:35.803Z,34.59
2022-09-04T09:05:55.767Z,34.47
2022-09-04T09:08:56.661Z,34.24
2022-09-04T09:12:09.339Z,34.46
2022-09-04T09:15:11.955Z,34.99
2022-09-04T09:17:45.130Z,35.20
2022-09-04T09:20:27.262Z,36.34
2022-09-04T09:23:19.556Z,36.33
2022-09-04T09:25:59.421Z,36.82
2022-09-04T09:28:35.256Z,37.04
2022-09-04T09:31:29.630Z,36.66
2022-09-04T09:34:32.188Z,36.77
2022-09-04T09:37:31.038Z,37.92
2022-09-04T09:40:16.114Z,37.33
2022-09-04T09:43:01.178Z,37.59
2022-09-04T09:45:55.673Z,38.28
2022-09-04T09:48:46.617Z,37.42
2022-09-04T09:51:56.939Z,38.07
2022-09-04T09:54:37.971Z,38.27
2022-09-04T09:57:44.458Z,38.13
2022-09-04T10:00:15.415Z,38.19
2022-09-04T10:03:11.288Z,38.85
2022-09-04T10:05:56.094Z,37.81
2022-09-04T10:08:35.713Z,38.34
2022-09-04T10:11:33.509Z,38.12
2022-09-04T10:14:15.312Z,38.79
2022-09-04T10:16:58.310Z,38.53
2022-09-04T10:20:08.602Z,38.53
2022-09-04T10:23:09.318Z,38.50
2022-09-04T10:25:38.877Z,38.48
2022-09-04T10:28:32.820Z,38.33
2022-09-04T10:31:17.907Z,37.58
2022-09-04T10:34:24.180Z,37.67
2022-09-04T10:37:17.589Z,37.90
2022-09-04T10:40:21.137Z,37.58
2022-09-04T10:43:09.670Z,36.76
2022-09-04T10:45:46.889Z,36.47
2022-09-04T10:48:40.736Z,35.95
2022-09-04T10:51:22.330Z,35.94
2022-09-04T10:53:58.222Z,35.98
2022-09-04T10:56:35.370Z,35.49
2022-09-04T10:59:23.294Z,35.04
2022-09-04T11:02:12.300Z,34.90
2022-09-04T11:05:07.940Z,35.21
2022-09-04T11:08:06.951Z,35.45
2022-09-04T11:10:53.151Z,35.46
2022-09-04T11:14:07.857Z,34.78
2022-09-04T11:16:50.609Z,34.40
2022-09-04T11:19:54.920Z,34.96
2022-09-04T11:22:46.113Z,34.07
2022-09-04T11:25:52.132Z,34.32
2022-09-04T11:28:47.355Z,33.23
2022-09-04T11:31:35.061Z,33.01
2022-09-04T11:34:49.079Z,33.45
2022-09-04T11:37:34.101Z,32.60
2022-09-04T11:40:19.048Z,32.59
2022-09-04T11:43:15.391Z,32.92
2022-09-04T11:46:29.228Z,33.05
2022-09-04T11:49:40.761Z,33.07
2022-09-04T11:52:14.851Z,32.96
2022-09-04T11:55:14.308Z,32.87
2022-09-04T11:58:18.797Z,32.36
2022-09-04T12:01:04.082Z,31.64
2022-09-04T12:04:14.859Z,32.05
2022-09-04T12:07:00.054Z,32.46
2022-09-04T12:09:40.937Z,32.10
2022-09-04T12:12:11.536Z,31.75
2022-09-04T12:15:08.852Z,31.99
2022-09-04T12:17:57.447Z,31.63
2022-09-04T12:20:51.262Z,31.39
2022-09-04T12:24:05.765Z,31.10
2022-09-04T12:27:03.220Z,31.73
2022-09-04T12:29:51.477Z,31.37
2022-09-04T12:32:50.231Z,32.01
2022-09-04T12:35:45.527Z,32.67
2022-09-04T12:38:37.608Z,32.43
2022-09-04T12:41:16.640Z,32.50
2022-09-04T12:44:08.676Z,31.28
2022-09-04T12:47:00.588Z,31.22
2022-09-04T12:49:33.136Z,30.42
2022-09-04T12:52:23.209Z,30.82
2022-09-04T12:55:04.913Z,31.39
2022-09-04T12:57:56.473Z,31.41
2022-09-04T13:00:26.316Z,30.74
2022-09-04T13:03:38.225Z,30.23
2022-09-04T13:06:10.632Z,30.69
2022-09-04T13:09:01.740Z,30.75
2022-09-04T13:11:50.382Z,30.48
2022-09-04T13:14:16.892Z,30.14
2022-09-04T13:17:05.224Z,30.18
2022-09-04T13:19:49.607Z,30.07
2022-09-04T13:22:22.337Z,29.94
2022-09-04T13:25:09.626Z,29.73
2022-09-04T13:27:58.400Z,30.06
2022-09-04T13:30:28.365Z,30.11
2022-09-04T13:33:40.033Z,30.41
2022-09-04T13:36:28.192Z,29.88
2022-09-04T13:39:16.507Z,30.16
2022-09-04T13:41:46.587Z,29.83
2022-09-04T13:44:42.395Z,30.59
2022-09-04T13:47:22.949Z,29.62
2022-09-04T13:50:08.442Z,30.22
2022-09-04T13:52:53.472Z,29.80
2022-09-04T13:55:24.938Z,30.56
2022-09-04T13:57:59.543Z,30.08
2022-09-04T14:00:30.228Z,29.98
2022-09-04T14:03:03.721Z,30.03
2022-09-04T14:05:33.112Z,29.81
2022-09-04T14:08:04.292Z,29.40
2022-09-04T14:11:05.140Z,29.63
2022-09-04T14:13:51.991Z,29.75
2022-09-04T14:16:19.583Z,29.24
2022-09-04T14:19:22.270Z,29.16
2022-09-04T14:22:14.979Z,28.62
2022-09-04T14:25:00.186Z,28.38
2022-09-04T14:27:48.498Z,28.11
2022-09-04T14:30:23.156Z,27.93
2022-09-04T14:33:08.871Z,28.14
2022-09-04T14:35:59.891Z,27.88
2022-09-04T14:38:50.105Z,27.00
2022-09-04T14:42:12.087Z,27.65
2022-09-04T14:45:09.532Z,27.27
2022-09-04T14:48:03.560Z,26.86
2022-09-04T14:50:36.264Z,26.92
2022-09-04T14:53:08.712Z,26.70
2022-09-04T14:55:41.037Z,26.97
2022-09-04T14:58:20.150Z,26.64
2022-09-04T15:00:54.174Z,26.50
2022-09-04T15:03:31.854Z,26.82
2022-09-04T15:06:12.438Z,26.98
2022-09-04T15:08:40.833Z,26.91
2022-09-04T15:11:31.679Z,26.49
2022-09-04T15:14:24.389Z,27.04
2022-09-04T15:16:55.795Z,26.93
2022-09-04T15:19:37.284Z,26.55
2022-09-04T15:22:16.899Z,26.05
2022-09-04T15:24:52.853Z,25.94
2022-09-04T15:27:36.598Z,25.90
2022-09-04T15:30:11.395Z,26.23
2022-09-04T15:32:42.718Z,25.69
2022-09-04T15:35:32.843Z,25.76
2022-09-04T15:38:24.842Z,26.01
2022-09-04T15:41:17.730Z,25.84
2022-09-04T15:43:51.343Z,26.61
2022-09-04T15:46:27.040Z,26.49
2022-09-04T15:49:35.283Z,26.90
2022-09-04T15:52:26.138Z,26.73
2022-09-04T15:55:02.941Z,26.92
2022-09-04T15:57:56.079Z,27.02
2022-09-04T16:00:26.443Z,27.31
2022-09-04T16:03:16.597Z,27.43
2022-09-04T16:05:59.248Z,27.25
2022-09-04T16:08:44.486Z,26.79
2022-09-04T16:11:23.120Z,27.64
2022-09-04T16:13:49.692Z,27.65
2022-09-04T16:16:28.326Z,28.08
2022-09-04T16:19:14.281Z,28.15
2022-09-04T16:21:46.661Z,28.51
2022-09-04T16:24:24.634Z,28.36
2022-09-04T16:26:54.115Z,28.66
2022-09-04T16:29:30.378Z,28.66
2022-09-04T16:31:58.934Z,28.41
2022-09-04T16:34:28.694Z,28.67
2022-09-04T16:37:05.457Z,28.79
2022-09-04T16:39:49.837Z,28.78
2022-09-04T16:42:28.605Z,29.09
2022-09-04T16:45:03.845Z,28.80
2022-09-04T16:47:41.330Z,29.07
2022-09-04T16:50:13.397Z,28.82
2022-09-04T16:53:13.096Z,29.03
2022-09-04T16:55:49.527Z,29.19
2022-09-04T16:58:56.778Z,29.33
2022-09-04T17:01:32.765Z,29.63
2022-09-04T17:04:28.620Z,29.54
2022-09-04T17:07:07.857Z,29.69
2022-09-04T17:09:38.571Z,29.68
2022-09-04T17:12:18.718Z,30.07
2022-09-04T17:15:08.286Z,30.27
2022-09-04T17:17:41.047Z,30.45
2022-09-04T17:20:09.741Z,30.60
2022-09-04T17:29:01.921Z,30.05
2022-09-04T17:29:16.026Z,30.74
2022-09-04T17:29:36.928Z,30.70
2022-09-04T17:33:59.839Z,30.90
2022-09-04T17:40:31.886Z,31.33
2022-09-04T17:40:48.982Z,31.35
2022-09-04T17:41:55.879Z,32.18
2022-09-04T17:44:47.182Z,31.95
2022-09-04T17:47:38.032Z,32.10
2022-09-04T17:50:12.561Z,32.88
2022-09-04T17:53:01.642Z,33.14
2022-09-04T17:55:38.858Z,33.63
2022-09-04T17:58:40.298Z,33.49
2022-09-04T18:01:19.059Z,34.01
2022-09-04T18:04:12.118Z,33.90
2022-09-04T18:06:51.479Z,34.70
2022-09-04T18:09:32.062Z,34.89
2022-09-04T18:12:13.933Z,35.30
2022-09-04T18:15:27.544Z,35.70
2022-09-04T18:18:00.681Z,36.25
2022-09-04T18:20:42.463Z,36.43
2022-09-04T18:23:50.945Z,35.96
2022-09-04T18:26:48.007Z,36.12
2022-09-04T18:30:34.042Z,36.71
2022-09-04T18:37:12.372Z,37.19
2022-09-04T18:37:26.903Z,37.23
2022-09-04T18:38:41.778Z,37.18
2022-09-04T18:50:31.844Z,38.23
2022-09-04T18:50:51.444Z,38.60
2022-09-04T18:50:53.165Z,38.08
2022-09-04T18:51:20.723Z,38.65
2022-09-04T18:53:53.687Z,39.77
2022-09-04T18:56:30.843Z,39.86
2022-09-04T18:59:02.432Z,40.00
2022-09-04T19:01:39.809Z,40.40
2022-09-04T19:04:19.189Z,40.21
2022-09-04T19:07:06.722Z,40.59
2022-09-04T19:10:18.491Z,40.49
2022-09-04T19:12:56.641Z,41.45
2022-09-04T19:15:27.393Z,41.64
2022-09-04T19:18:21.917Z,41.44
2022-09-04T19:20:52.999Z,42.23
2022-09-04T19:23:32.446Z,42.24
2022-09-04T19:26:07.304Z,42.61
2022-09-04T19:28:52.455Z,42.59
2022-09-04T19:31:38.419Z,43.01
2022-09-04T19:34:14.502Z,43.52
2022-09-04T19:36:49.593Z,43.75
2022-09-04T19:46:05.150Z,43.78
2022-09-04T19:46:08.898Z,43.49
2022-09-04T19:46:18.623Z,43.98
2022-09-04T19:49:46.486Z,43.77
2022-09-04T19:53:24.371Z,44.28
2022-09-04T19:55:24.672Z,44.72
2022-09-04T19:58:02.760Z,44.87
2022-09-04T20:00:42.475Z,45.20
2022-09-04T20:03:29.836Z,45.22
2022-09-04T20:06:20.255Z,45.41
2022-09-04T20:08:53.389Z,46.25
2022-09-04T20:11:35.907Z,46.17
2022-09-04T20:14:16.051Z,46.19
2022-09-04T20:17:13.442Z,46.61
2022-09-04T20:19:48.270Z,47.04
2022-09-04T20:22:46.254Z,46.88
2022-09-04T20:25:24.344Z,47.12
2022-09-04T20:27:56.924Z,47.96
2022-09-04T20:30:25.358Z,47.94
2022-09-04T20:33:02.764Z,48.02
2022-09-04T20:35:47.512Z,48.25
2022-09-04T20:38:30.433Z,48.49
2022-09-04T20:41:35.552Z,47.88
2022-09-04T20:44:28.410Z,48.52
2022-09-04T20:52:49.921Z,48.12
2022-09-04T20:52:51.599Z,48.38
2022-09-04T20:53:46.781Z,48.58
2022-09-04T21:01:45.865Z,48.63
2022-09-04T21:03:17.612Z,49.45
2022-09-04T21:03:21.363Z,49.37
2022-09-04T21:06:07.320Z,49.32
2022-09-04T21:08:54.938Z,49.69
2022-09-04T21:11:40.605Z,50.05
2022-09-04T21:14:44.919Z,50.47
2022-09-04T21:17:35.634Z,50.59
2022-09-04T21:20:20.878Z,50.74
2022-09-04T21:22:50.216Z,51.11
2022-09-04T21:25:35.220Z,50.42
2022-09-04T21:28:19.731Z,51.21
2022-09-04T21:31:08.861Z,50.94
2022-09-04T21:33:53.976Z,51.78
2022-09-04T21:36:30.043Z,51.79
2022-09-04T21:39:21.424Z,51.75
2022-09-04T21:42:32.853Z,51.44
2022-09-04T21:45:17.949Z,52.05
2022-09-04T21:48:06.029Z,51.98
2022-09-04T21:51:23.328Z,51.68
2022-09-04T21:55:29.854Z,52.28
2022-09-04T22:02:26.173Z,52.04
2022-09-04T22:02:42.420Z,52.78
2022-09-04T22:03:35.918Z,52.35
2022-09-04T22:08:10.654Z,52.49
2022-09-04T22:13:32.171Z,53.03
2022-09-04T22:13:41.886Z,52.99
2022-09-04T22:15:52.327Z,53.66
2022-09-04T22:18:32.153Z,53.71
2022-09-04T22:21:04.553Z,53.72
2022-09-04T22:24:08.779Z,53.49
2022-09-04T22:26:53.784Z,53.93
2022-09-04T22:29:50.047Z,53.70
2022-09-04T22:32:25.889Z,54.23
2022-09-04T22:35:17.417Z,54.29
2022-09-04T22:38:05.333Z,53.98
2022-09-04T22:40:55.902Z,54.57
2022-09-04T22:43:29.463Z,54.89
2022-09-04T22:46:37.034Z,54.48
2022-09-04T22:49:34.829Z,54.58
2022-09-04T22:52:42.927Z,54.77
2022-09-04T22:56:05.272Z,54.72
2022-09-04T22:59:25.613Z,55.16
2022-09-04T23:02:13.644Z,55.88
2022-09-04T23:05:14.758Z,55.45
2022-09-04T23:11:28.693Z,55.68
2022-09-04T23:13:52.627Z,56.17
2022-09-04T23:14:18.949Z,56.03
2022-09-04T23:16:53.590Z,56.38
2022-09-04T23:22:29.448Z,56.42
2022-09-04T23:26:46.818Z,56.29
2022-09-04T23:26:50.183Z,56.52
2022-09-04T23:29:21.389Z,56.30
2022-09-04T23:32:22.512Z,56.70
2022-09-04T23:35:14.311Z,57.12
2022-09-04T23:38:09.844Z,56.82
2022-09-04T23:40:55.648Z,57.29
2022-09-04T23:43:46.435Z,57.50
2022-09-04T23:46:38.775Z,57.98
2022-09-04T23:49:25.577Z,58.15
2022-09-04T23:52:03.283Z,57.98
2022-09-04T23:54:45.930Z,58.15
2022-09-04T23:57:26.612Z,58.93
